createdAt,value
2024-05-09T00:01:29.255Z,2.85
2024-05-09T00:04:34.899Z,2.80
2024-05-09T00:07:42.944Z,2.40
2024-05-09T00:10:48.355Z,2.30
2024-05-09T00:13:53.757Z,2.97
2024-05-09T00:16:59.695Z,2.80
2024-05-09T00:20:11.158Z,3.03
2024-05-09T00:23:25.531Z,2.50
2024-05-09T00:26:30.959Z,2.92
2024-05-09T00:29:36.365Z,2.65
2024-05-09T00:32:41.781Z,2.80
2024-05-09T00:35:47.083Z,2.67
2024-05-09T00:38:55.225Z,2.35
2024-05-09T00:42:00.493Z,2.58
2024-05-09T00:45:06.863Z,2.45
2024-05-09T00:48:16.422Z,2.80
2024-05-09T00:51:24.106Z,2.00
2024-05-09T00:54:33.074Z,2.58
2024-05-09T00:57:39.981Z,2.58
2024-05-09T01:00:45.466Z,2.75
2024-05-09T01:03:51.437Z,2.28
2024-05-09T01:06:57.007Z,2.95
2024-05-09T01:10:09.026Z,2.83
2024-05-09T01:13:16.781Z,2.40
2024-05-09T01:16:21.978Z,2.70
2024-05-09T01:19:31.357Z,2.63
2024-05-09T01:22:37.396Z,2.38
2024-05-09T01:25:46.115Z,2.70
2024-05-09T01:28:51.930Z,2.30
2024-05-09T01:31:59.385Z,2.80
2024-05-09T01:35:04.839Z,2.33
2024-05-09T01:38:12.827Z,2.47
2024-05-09T01:41:20.839Z,2.83
2024-05-09T01:44:26.380Z,2.80
2024-05-09T01:47:31.819Z,2.50
2024-05-09T01:50:40.807Z,2.70
2024-05-09T01:53:48.236Z,2.55
2024-05-09T01:56:56.200Z,2.88
2024-05-09T02:00:01.410Z,2.85
2024-05-09T02:03:06.992Z,2.30
2024-05-09T02:06:12.552Z,4.55
2024-05-09T02:09:19.020Z,4.60
2024-05-09T02:12:27.012Z,2.88
2024-05-09T02:15:33.721Z,2.53
2024-05-09T02:18:39.984Z,3.00
2024-05-09T02:21:45.276Z,3.33
2024-05-09T02:24:50.390Z,2.92
2024-05-09T02:27:59.255Z,2.67
2024-05-09T02:31:04.617Z,2.40
2024-05-09T02:34:09.882Z,2.30
2024-05-09T02:37:15.628Z,2.55
2024-05-09T02:40:25.388Z,2.50
2024-05-09T02:43:38.841Z,2.60
2024-05-09T02:46:41.425Z,2.40
2024-05-09T02:49:46.643Z,2.83
2024-05-09T02:52:53.338Z,2.42
2024-05-09T02:55:58.629Z,2.70
2024-05-09T02:59:03.955Z,2.50
2024-05-09T03:02:09.331Z,2.58
2024-05-09T03:05:12.930Z,2.67
2024-05-09T03:08:18.436Z,2.92
2024-05-09T03:11:21.473Z,2.60
2024-05-09T03:14:29.419Z,2.40
2024-05-09T03:17:32.354Z,2.63
2024-05-09T03:20:37.914Z,3.08
2024-05-09T03:23:41.412Z,2.75
2024-05-09T03:26:47.091Z,3.28
2024-05-09T03:29:52.524Z,3.22
2024-05-09T03:32:57.944Z,3.03
2024-05-09T03:36:00.751Z,2.45
2024-05-09T03:39:06.103Z,2.65
2024-05-09T03:42:11.349Z,2.33
2024-05-09T03:45:23.743Z,2.47
2024-05-09T03:48:26.407Z,2.50
2024-05-09T03:51:31.734Z,2.30
2024-05-09T03:54:34.839Z,2.60
2024-05-09T03:57:40.332Z,2.40
2024-05-09T04:00:45.788Z,2.42
2024-05-09T04:03:51.209Z,2.75
2024-05-09T04:06:54.287Z,2.35
2024-05-09T04:09:59.470Z,2.50
2024-05-09T04:13:02.377Z,2.58
2024-05-09T04:16:14.207Z,2.25
2024-05-09T04:19:19.608Z,2.33
2024-05-09T04:22:25.221Z,2.45
2024-05-09T04:25:27.767Z,2.50
2024-05-09T04:28:33.836Z,2.58
2024-05-09T04:31:39.370Z,2.42
2024-05-09T04:34:44.606Z,3.03
2024-05-09T04:37:47.135Z,2.95
2024-05-09T04:40:52.441Z,2.58
2024-05-09T04:43:55.932Z,3.05
2024-05-09T04:47:03.967Z,2.85
2024-05-09T04:50:11.414Z,2.92
2024-05-09T04:53:26.180Z,2.88
2024-05-09T04:56:29.418Z,2.78
2024-05-09T04:59:36.338Z,2.95
2024-05-09T05:02:46.003Z,3.30
2024-05-09T05:05:51.772Z,2.40
2024-05-09T05:08:57.096Z,2.80
2024-05-09T05:12:02.019Z,2.35
2024-05-09T05:15:09.088Z,2.58
2024-05-09T05:18:15.120Z,2.88
2024-05-09T05:21:20.508Z,2.42
2024-05-09T05:24:23.249Z,3.10
2024-05-09T05:27:28.433Z,2.35
2024-05-09T05:30:34.686Z,2.60
2024-05-09T05:33:43.146Z,2.50
2024-05-09T05:36:45.737Z,3.05
2024-05-09T05:39:50.945Z,2.10
2024-05-09T05:42:56.442Z,2.72
2024-05-09T05:45:59.013Z,2.28
2024-05-09T05:49:07.647Z,2.78
2024-05-09T05:52:12.273Z,2.88
2024-05-09T05:55:22.295Z,2.85
2024-05-09T05:58:25.012Z,2.95
2024-05-09T06:01:30.236Z,2.25
2024-05-09T06:04:35.610Z,2.30
2024-05-09T06:07:40.987Z,2.08
2024-05-09T06:10:43.735Z,2.42
2024-05-09T06:13:49.143Z,2.20
2024-05-09T06:16:52.564Z,1.80
2024-05-09T06:20:01.472Z,1.83
2024-05-09T06:23:07.072Z,1.65
2024-05-09T06:26:10.346Z,1.70
2024-05-09T06:29:17.049Z,1.80
2024-05-09T06:32:19.839Z,1.40
2024-05-09T06:35:27.900Z,1.80
2024-05-09T06:38:33.558Z,1.42
2024-05-09T06:41:36.418Z,1.58
2024-05-09T06:44:42.065Z,1.92
2024-05-09T06:47:53.975Z,1.70
2024-05-09T06:51:01.870Z,1.42
2024-05-09T06:54:07.306Z,1.50
2024-05-09T06:57:12.515Z,1.73
2024-05-09T07:00:23.005Z,1.33
2024-05-09T07:03:36.067Z,1.92
2024-05-09T07:06:41.472Z,1.20
2024-05-09T07:09:46.583Z,1.58
2024-05-09T07:12:50.277Z,1.27
2024-05-09T07:15:55.331Z,1.40
2024-05-09T07:19:00.743Z,1.08
2024-05-09T07:22:07.126Z,1.17
2024-05-09T07:25:12.407Z,1.65
2024-05-09T07:28:16.320Z,1.45
2024-05-09T07:31:23.419Z,1.42
2024-05-09T07:34:29.669Z,1.20
2024-05-09T07:37:36.050Z,1.30
2024-05-09T07:40:42.036Z,1.52
2024-05-09T07:43:44.982Z,1.40
2024-05-09T07:47:52.328Z,1.38
2024-05-09T07:56:30.558Z,1.58
2024-05-09T07:59:37.934Z,1.63
2024-05-09T08:02:43.521Z,1.52
2024-05-09T08:05:46.211Z,1.40
2024-05-09T08:08:55.994Z,1.92
2024-05-09T08:11:59.602Z,1.63
2024-05-09T08:15:04.948Z,2.08
2024-05-09T08:18:09.655Z,2.90
2024-05-09T08:21:15.024Z,1.60
2024-05-09T08:24:23.079Z,1.75
2024-05-09T08:27:27.498Z,1.63
2024-05-09T08:30:36.648Z,1.70
2024-05-09T08:33:44.608Z,1.60
2024-05-09T08:36:50.160Z,1.20
2024-05-09T08:39:55.825Z,1.48
2024-05-09T08:43:05.272Z,1.88
2024-05-09T08:46:13.023Z,1.90
2024-05-09T08:49:16.447Z,1.67
2024-05-09T08:52:21.868Z,2.10
2024-05-09T08:55:26.955Z,1.48
2024-05-09T08:58:33.144Z,1.65
2024-05-09T09:01:37.776Z,1.42
2024-05-09T09:04:44.485Z,1.45
2024-05-09T09:07:48.957Z,1.67
2024-05-09T09:10:58.002Z,1.70
2024-05-09T09:14:03.967Z,1.45
2024-05-09T09:17:13.116Z,1.35
2024-05-09T09:20:25.944Z,1.40
2024-05-09T09:23:31.998Z,1.38
2024-05-09T09:26:40.825Z,1.27
2024-05-09T09:29:48.168Z,3.58
2024-05-09T09:32:54.225Z,1.52
2024-05-09T09:35:56.819Z,1.63
2024-05-09T09:39:02.430Z,1.30
2024-05-09T09:42:07.868Z,1.50
2024-05-09T09:45:17.099Z,1.52
2024-05-09T09:48:27.634Z,1.92
2024-05-09T09:51:33.057Z,1.65
2024-05-09T09:54:36.250Z,2.05
2024-05-09T09:57:45.341Z,1.50
2024-05-09T10:00:48.539Z,1.77
2024-05-09T10:03:54.446Z,1.70
2024-05-09T10:06:59.382Z,1.88
2024-05-09T10:10:07.111Z,2.15
2024-05-09T10:13:13.555Z,1.80
2024-05-09T10:16:24.895Z,1.85
2024-05-09T10:19:29.322Z,1.77
2024-05-09T10:26:08.885Z,2.05
2024-05-09T10:29:50.824Z,1.52
2024-05-09T10:33:01.010Z,1.63
2024-05-09T10:36:06.503Z,2.05
2024-05-09T10:39:13.805Z,2.08
2024-05-09T10:42:21.368Z,1.95
2024-05-09T10:45:27.128Z,2.13
2024-05-09T10:48:32.957Z,2.00
2024-05-09T10:51:38.367Z,2.03
2024-05-09T10:54:44.204Z,1.67
2024-05-09T10:57:47.942Z,1.50
2024-05-09T11:00:55.533Z,1.58
2024-05-09T11:04:04.088Z,1.70
2024-05-09T11:07:12.354Z,2.35
2024-05-09T11:10:20.712Z,2.03
2024-05-09T11:13:34.066Z,1.98
2024-05-09T11:16:38.097Z,2.42
2024-05-09T11:19:52.508Z,2.38
2024-05-09T11:22:55.805Z,1.98
2024-05-09T11:26:02.137Z,2.30
2024-05-09T11:29:08.453Z,2.13
2024-05-09T11:32:13.419Z,2.05
2024-05-09T11:35:24.336Z,2.55
2024-05-09T11:38:27.067Z,2.58
2024-05-09T11:41:35.959Z,2.20
2024-05-09T11:44:39.332Z,2.72
2024-05-09T11:47:44.954Z,2.60
2024-05-09T11:50:50.935Z,2.55
2024-05-09T11:53:56.181Z,2.65
2024-05-09T11:57:01.128Z,2.88
2024-05-09T12:00:09.436Z,2.55
2024-05-09T12:03:14.917Z,2.25
2024-05-09T12:06:20.175Z,2.42
2024-05-09T12:09:27.792Z,2.90
2024-05-09T12:12:30.640Z,3.10
2024-05-09T12:15:37.543Z,2.47
2024-05-09T12:18:42.456Z,2.50
2024-05-09T12:21:51.250Z,2.40
2024-05-09T12:24:55.816Z,2.30
2024-05-09T12:28:01.285Z,2.45
2024-05-09T12:31:04.259Z,2.50
2024-05-09T12:34:09.666Z,2.70
2024-05-09T12:37:15.722Z,2.30
2024-05-09T12:40:30.752Z,2.40
2024-05-09T12:43:37.722Z,2.20
2024-05-09T12:46:42.943Z,2.30
2024-05-09T12:49:46.451Z,2.28
2024-05-09T12:52:54.440Z,2.75
2024-05-09T12:56:01.599Z,2.28
2024-05-09T12:59:11.252Z,1.98
2024-05-09T13:02:15.804Z,1.70
2024-05-09T13:05:21.509Z,1.90
2024-05-09T13:08:32.160Z,2.65
2024-05-09T13:11:39.115Z,2.58
2024-05-09T13:14:41.868Z,2.60
2024-05-09T13:17:50.099Z,2.67
2024-05-09T13:20:55.641Z,2.55
2024-05-09T13:24:04.796Z,1.83
2024-05-09T13:27:11.158Z,3.00
2024-05-09T13:30:25.850Z,2.55
2024-05-09T13:33:38.588Z,2.17
2024-05-09T13:36:41.485Z,1.80
2024-05-09T13:39:52.089Z,2.35
2024-05-09T13:42:57.761Z,2.67
2024-05-09T13:46:03.211Z,2.50
2024-05-09T13:49:17.452Z,2.33
2024-05-09T13:52:23.689Z,2.22
2024-05-09T13:55:29.149Z,1.95
2024-05-09T13:58:38.534Z,2.30
2024-05-09T14:01:44.259Z,2.50
2024-05-09T14:04:48.171Z,2.10
2024-05-09T14:07:57.029Z,2.33
2024-05-09T14:11:05.339Z,2.10
2024-05-09T14:14:11.215Z,1.58
2024-05-09T14:17:17.282Z,1.75
2024-05-09T14:20:29.979Z,1.70
2024-05-09T14:23:38.120Z,1.50
2024-05-09T14:26:51.513Z,1.50
2024-05-09T14:29:54.373Z,1.90
2024-05-09T14:32:59.965Z,2.33
2024-05-09T14:36:02.897Z,2.15
2024-05-09T14:39:08.515Z,1.83
2024-05-09T14:42:18.027Z,1.75
2024-05-09T14:45:28.697Z,2.25
2024-05-09T14:48:32.251Z,1.80
2024-05-09T14:51:37.800Z,1.95
2024-05-09T14:54:45.697Z,2.15
2024-05-09T14:57:54.593Z,1.55
2024-05-09T15:01:00.109Z,1.73
2024-05-09T15:04:03.163Z,1.52
2024-05-09T15:07:11.540Z,1.80
2024-05-09T15:10:23.779Z,1.85
2024-05-09T15:13:40.002Z,2.42
2024-05-09T15:16:43.471Z,2.45
2024-05-09T15:19:49.413Z,2.97
2024-05-09T15:22:52.648Z,2.40
2024-05-09T15:25:58.097Z,2.17
2024-05-09T15:29:06.712Z,2.63
2024-05-09T15:32:09.826Z,2.72
2024-05-09T15:35:15.484Z,2.60
2024-05-09T15:38:19.398Z,2.42
2024-05-09T15:41:25.059Z,2.50
2024-05-09T15:44:30.874Z,2.83
2024-05-09T15:47:37.945Z,2.38
2024-05-09T15:50:44.088Z,2.40
2024-05-09T15:53:47.104Z,2.30
2024-05-09T15:56:53.219Z,2.55
2024-05-09T15:59:58.832Z,2.63
2024-05-09T16:03:04.388Z,2.55
2024-05-09T16:06:08.117Z,2.50
2024-05-09T16:09:13.538Z,1.88
2024-05-09T16:12:16.396Z,1.88
2024-05-09T16:15:24.289Z,1.63
2024-05-09T16:18:27.960Z,2.10
2024-05-09T16:21:34.441Z,2.17
2024-05-09T16:24:37.140Z,2.15
2024-05-09T16:27:43.246Z,1.90
2024-05-09T16:30:48.696Z,2.30
2024-05-09T16:33:56.565Z,2.70
2024-05-09T16:37:00.100Z,2.47
2024-05-09T16:40:09.927Z,3.55
2024-05-09T16:43:21.106Z,3.03
2024-05-09T16:46:28.229Z,2.72
2024-05-09T16:49:48.852Z,3.38
2024-05-09T16:52:54.245Z,3.25
2024-05-09T16:55:59.466Z,3.30
2024-05-09T16:59:02.290Z,3.30
2024-05-09T17:02:11.297Z,4.05
2024-05-09T17:05:16.996Z,3.40
2024-05-09T17:08:22.948Z,2.97
2024-05-09T17:11:25.711Z,2.75
2024-05-09T17:14:31.123Z,3.25
2024-05-09T17:17:39.362Z,3.35
2024-05-09T17:20:44.693Z,3.47
2024-05-09T17:23:47.406Z,3.17
2024-05-09T17:26:52.894Z,2.80
2024-05-09T17:29:58.358Z,3.35
2024-05-09T17:33:03.981Z,2.83
2024-05-09T17:36:09.665Z,3.40
2024-05-09T17:39:15.058Z,2.60
2024-05-09T17:42:17.627Z,3.00
2024-05-09T17:45:23.445Z,2.80
2024-05-09T17:48:29.212Z,3.53
2024-05-09T17:51:35.847Z,3.30
2024-05-09T17:54:38.743Z,2.97
2024-05-09T17:57:44.172Z,2.50
2024-05-09T18:00:49.632Z,3.55
2024-05-09T18:03:55.451Z,2.80
2024-05-09T18:07:00.965Z,2.67
2024-05-09T18:10:10.215Z,2.65
2024-05-09T18:13:21.861Z,2.97
2024-05-09T18:16:29.031Z,2.30
2024-05-09T18:19:38.860Z,2.90
2024-05-09T18:22:44.983Z,3.28
2024-05-09T18:25:54.814Z,2.60
2024-05-09T18:29:01.724Z,2.15
2024-05-09T18:32:05.208Z,2.28
2024-05-09T18:35:14.529Z,2.47
2024-05-09T18:38:18.533Z,2.50
2024-05-09T18:41:24.120Z,2.88
2024-05-09T18:44:32.472Z,2.55
2024-05-09T18:47:35.710Z,2.58
2024-05-09T18:50:45.581Z,2.90
2024-05-09T18:53:52.387Z,2.70
2024-05-09T18:56:58.498Z,2.20
2024-05-09T19:00:02.248Z,2.88
2024-05-09T19:03:10.512Z,2.55
2024-05-09T19:06:24.592Z,2.30
2024-05-09T19:09:30.821Z,2.80
2024-05-09T19:12:38.427Z,2.33
2024-05-09T19:15:42.359Z,2.63
2024-05-09T19:18:51.596Z,2.58
2024-05-09T19:22:01.836Z,2.83
2024-05-09T19:25:06.015Z,2.92
2024-05-09T19:28:11.885Z,3.15
2024-05-09T19:31:15.422Z,3.25
2024-05-09T19:37:52.843Z,2.78
2024-05-09T19:40:58.449Z,2.75
2024-05-09T19:44:04.116Z,2.80
2024-05-09T19:47:07.577Z,2.85
2024-05-09T19:50:19.564Z,2.70
2024-05-09T19:53:28.713Z,2.65
2024-05-09T19:56:35.411Z,2.70
2024-05-09T19:59:40.922Z,3.03
2024-05-09T20:02:46.700Z,2.58
2024-05-09T20:05:49.781Z,3.10
2024-05-09T20:08:59.043Z,2.38
2024-05-09T20:12:03.000Z,2.83
2024-05-09T20:15:09.378Z,2.70
2024-05-09T20:18:15.329Z,2.67
2024-05-09T20:21:18.393Z,2.90
2024-05-09T20:24:27.375Z,3.10
2024-05-09T20:27:30.477Z,3.03
2024-05-09T20:30:36.874Z,2.70
2024-05-09T20:33:40.080Z,2.42
2024-05-09T20:36:57.560Z,2.60
2024-05-09T20:40:21.186Z,2.65
2024-05-09T20:43:31.843Z,3.10
2024-05-09T20:46:34.770Z,2.85
2024-05-09T20:49:40.329Z,2.50
2024-05-09T20:52:43.287Z,2.50
2024-05-09T20:55:51.291Z,2.80
2024-05-09T20:59:00.621Z,2.63
2024-05-09T21:02:03.476Z,2.85
2024-05-09T21:05:22.044Z,2.50
2024-05-09T21:08:42.270Z,2.90
2024-05-09T21:11:50.330Z,1.88
2024-05-09T21:14:55.612Z,2.80
2024-05-09T21:17:58.627Z,2.78
2024-05-09T21:21:07.054Z,2.95
2024-05-09T21:24:09.867Z,2.38
2024-05-09T21:27:17.874Z,2.35
2024-05-09T21:30:32.307Z,2.63
2024-05-09T21:33:45.990Z,2.10
2024-05-09T21:36:48.697Z,2.22
2024-05-09T21:39:54.262Z,2.40
2024-05-09T21:42:59.938Z,2.65
2024-05-09T21:46:05.454Z,2.40
2024-05-09T21:49:11.158Z,2.75
2024-05-09T21:52:15.557Z,2.88
2024-05-09T21:55:21.155Z,2.45
2024-05-09T21:58:29.561Z,2.40
2024-05-09T22:01:34.012Z,2.35
2024-05-09T22:04:40.193Z,2.38
2024-05-09T22:07:42.889Z,2.25
2024-05-09T22:10:48.224Z,2.38
2024-05-09T22:13:53.826Z,1.88
2024-05-09T22:16:59.221Z,2.60
2024-05-09T22:20:01.846Z,2.33
2024-05-09T22:23:09.056Z,1.98
2024-05-09T22:26:11.694Z,2.10
2024-05-09T22:29:20.146Z,2.50
2024-05-09T22:32:26.249Z,2.30
2024-05-09T22:35:29.017Z,2.53
2024-05-09T22:38:35.286Z,2.40
2024-05-09T22:41:41.721Z,2.35
2024-05-09T22:44:47.772Z,2.42
2024-05-09T22:47:53.436Z,2.55
2024-05-09T22:50:56.181Z,2.83
2024-05-09T22:54:03.337Z,2.38
2024-05-09T22:57:06.414Z,2.72
2024-05-09T23:00:16.384Z,2.35
2024-05-09T23:03:22.848Z,2.47
2024-05-09T23:06:28.931Z,2.92
2024-05-09T23:09:32.575Z,2.80
2024-05-09T23:12:38.029Z,3.15
2024-05-09T23:15:47.531Z,2.92
2024-05-09T23:18:51.180Z,2.60
2024-05-09T23:21:56.659Z,2.67
2024-05-09T23:24:59.350Z,3.22
2024-05-09T23:28:06.009Z,2.42
2024-05-09T23:31:11.966Z,2.58
2024-05-09T23:34:18.247Z,2.90
2024-05-09T23:37:21.160Z,2.30
2024-05-09T23:40:37.468Z,2.42
2024-05-09T23:43:42.872Z,2.47
2024-05-09T23:46:51.025Z,2.47
2024-05-09T23:49:56.438Z,2.70
2024-05-09T23:52:59.393Z,2.58
2024-05-09T23:56:04.857Z,2.85
2024-05-09T23:59:11.052Z,2.47
